Nasa Shuttle, FL

9:59 PM EST on February 22, 2017 (GMT -0500)
Nasa Shuttle | | Change Station

Elev 10 ft 28.62 °N, 80.72 °W | Updated 21 minutes ago

Light Rain
Light Rain
64 °F
Feels Like 64 °F
N
4
Wind Variable Wind from North

Today
High -- | Low -- °F
--% Chance of Precip.
Yesterday
High -- | Low -- °F
Precip. -- in
Pressure 29.70 in
Visibility 9.0 miles
Clouds Scattered Clouds 1400 ft
Mostly Cloudy 7000 ft
Dew Point 64 °F
Humidity 100%
Rainfall 1.40 in
Snow Depth Not available.
6:54 AM 6:18 PM
Waning Crescent, 13% visible
SPECI KTTS 230238Z AUTO 01003KT 9SM -RA SCT014 BKN070 18/18 A2968 RMK AO2 CIG 012 RWY33 SLP055
Pressure 29.70 in
Visibility 9.0 miles
Clouds Scattered Clouds 1400 ft
Mostly Cloudy 7000 ft
Dew Point 64 °F
Humidity 100%
Rainfall 1.40 in
Snow Depth Not available.
6:54 AM 6:18 PM
Waning Crescent, 13% visible
SPECI KTTS 230238Z AUTO 01003KT 9SM -RA SCT014 BKN070 18/18 A2968 RMK AO2 CIG 012 RWY33 SLP055

Get Your Daily Forecast Email!

Thanks for signing up!

Be on the lookout for a verification email in your inbox.

You'll start receiving the daily forecast at 8 AM.

×

10-Day Weather Forecast

Almanac

Astronomy

Feb. 22, 2017 Rise Set
Actual Time
Civil Twilight
Nautical Twilight
Astronomical Twilight
Moon
Length of Visible Light
Length of Day
Tomorrow will be .
, % of the Moon is Illuminated

Today's Extremes

State Highs State Lows

Community

WunderPhotos

Upload Photos

1,962,540 photos uploaded!

WunderBlog® & News

Nearby

Air Quality

  Air Quality AQ Index Pollutant
Not available.

Snow Depth

Station Depth Elevation

Earthquake Activity

City Distance Mag. Time & Date
Minimum magnitude displayed is 2.5.

Coastal Water Temperatures

Place Temperature

Stations

Nearby Weather Stations

Station Location Temp. Windchill Dew Point Humidity Wind Precip. Elev Updated Type
                   

Watches & Warnings

There are currently no watches in effect.